createdAt,value
2023-03-16T00:00:05.144Z,97.60
2023-03-16T00:02:32.294Z,96.90
2023-03-16T00:04:59.373Z,96.60
2023-03-16T00:07:26.624Z,97.20
2023-03-16T00:09:54.703Z,98.20
2023-03-16T00:12:22.784Z,98.20
2023-03-16T00:14:50.125Z,97.70
2023-03-16T00:17:19.553Z,97.20
2023-03-16T00:19:48.416Z,97.20
2023-03-16T00:22:16.722Z,97.30
2023-03-16T00:24:44.154Z,97.80
2023-03-16T00:27:16.344Z,97.90
2023-03-16T00:29:47.587Z,98.40
2023-03-16T00:32:21.052Z,98.70
2023-03-16T00:34:48.963Z,98.50
2023-03-16T00:37:18.130Z,98.70
2023-03-16T00:39:46.742Z,99.20
2023-03-16T00:42:15.995Z,99.40
2023-03-16T00:44:43.582Z,99.20
2023-03-16T00:47:15.528Z,99.30
2023-03-16T00:49:44.261Z,99.40
2023-03-16T00:52:14.959Z,99.10
2023-03-16T00:54:43.593Z,98.80
2023-03-16T00:57:12.964Z,98.70
2023-03-16T00:59:40.448Z,99.00
2023-03-16T01:02:09.309Z,99.30
2023-03-16T01:04:36.926Z,99.20
2023-03-16T01:07:05.478Z,99.90
2023-03-16T01:09:37.170Z,99.90
2023-03-16T01:12:07.741Z,99.90
2023-03-16T01:14:36.281Z,99.90
2023-03-16T01:17:06.392Z,99.90
2023-03-16T01:19:35.737Z,99.90
2023-03-16T01:22:06.305Z,99.90
2023-03-16T01:24:35.574Z,99.90
2023-03-16T01:27:04.449Z,99.90
2023-03-16T01:29:33.213Z,99.90
2023-03-16T01:32:02.005Z,99.90
2023-03-16T01:34:29.155Z,99.90
2023-03-16T01:36:56.738Z,99.90
2023-03-16T01:39:28.370Z,99.90
2023-03-16T01:41:55.739Z,99.90
2023-03-16T01:44:28.375Z,99.90
2023-03-16T01:46:57.416Z,99.90
2023-03-16T01:49:32.933Z,99.90
2023-03-16T01:52:12.762Z,99.90
2023-03-16T01:54:45.723Z,99.90
2023-03-16T01:57:25.898Z,99.90
2023-03-16T01:59:55.081Z,99.90
2023-03-16T02:02:25.820Z,99.90
2023-03-16T02:05:14.231Z,99.90
2023-03-16T02:07:46.672Z,99.90
2023-03-16T02:10:17.251Z,99.90
2023-03-16T02:12:45.024Z,99.90
2023-03-16T02:15:14.143Z,99.90
2023-03-16T02:17:44.203Z,99.90
2023-03-16T02:20:34.664Z,99.90
2023-03-16T02:23:03.926Z,99.90
2023-03-16T02:25:42.217Z,99.90
2023-03-16T02:28:17.465Z,99.90
2023-03-16T02:30:47.922Z,99.90
2023-03-16T02:33:17.551Z,99.90
2023-03-16T02:35:45.444Z,99.90
2023-03-16T02:38:12.760Z,99.90
2023-03-16T02:40:58.286Z,99.90
2023-03-16T02:43:33.543Z,99.90
2023-03-16T02:46:09.181Z,99.90
2023-03-16T02:48:44.583Z,99.90
2023-03-16T02:51:12.296Z,99.90
2023-03-16T02:53:39.695Z,99.90
2023-03-16T02:56:08.190Z,99.90
2023-03-16T02:58:37.205Z,99.90
2023-03-16T03:01:10.261Z,99.90
2023-03-16T03:03:38.862Z,99.90
2023-03-16T03:06:06.421Z,99.90
2023-03-16T03:08:36.489Z,99.90
2023-03-16T03:11:04.120Z,99.90
2023-03-16T03:13:31.840Z,99.90
2023-03-16T03:15:59.610Z,99.90
2023-03-16T03:18:28.398Z,99.90
2023-03-16T03:20:55.734Z,99.90
2023-03-16T03:23:23.797Z,99.90
2023-03-16T03:25:50.844Z,99.90
2023-03-16T03:28:18.731Z,99.90
2023-03-16T03:30:46.282Z,99.90
2023-03-16T03:33:13.520Z,99.90
2023-03-16T03:35:42.286Z,99.90
2023-03-16T03:38:11.632Z,99.90
2023-03-16T03:40:40.187Z,99.90
2023-03-16T03:43:07.370Z,99.90
2023-03-16T03:45:39.418Z,99.90
2023-03-16T03:48:07.007Z,99.90
2023-03-16T03:50:34.466Z,99.90
2023-03-16T03:53:21.747Z,99.90
2023-03-16T03:56:08.129Z,99.90
2023-03-16T03:58:35.578Z,99.90
2023-03-16T04:01:05.701Z,99.90
2023-03-16T04:03:34.230Z,99.90
2023-03-16T04:06:01.550Z,99.90
2023-03-16T04:08:30.256Z,99.90
2023-03-16T04:10:57.439Z,99.90
2023-03-16T04:13:24.827Z,99.90
2023-03-16T04:15:58.439Z,99.90
2023-03-16T04:18:29.517Z,99.90
2023-03-16T04:20:56.660Z,99.90
2023-03-16T04:23:25.428Z,99.90
2023-03-16T04:25:54.896Z,99.90
2023-03-16T04:28:23.009Z,99.90
2023-03-16T04:30:55.231Z,99.90
2023-03-16T04:33:29.879Z,99.90
2023-03-16T04:35:57.137Z,99.90
2023-03-16T04:38:25.014Z,99.90
2023-03-16T04:40:56.544Z,99.90
2023-03-16T04:43:28.019Z,99.90
2023-03-16T04:46:02.296Z,99.90
2023-03-16T04:48:32.511Z,99.90
2023-03-16T04:51:01.599Z,99.90
2023-03-16T04:53:32.077Z,99.90
2023-03-16T04:56:04.517Z,99.90
2023-03-16T04:58:32.328Z,99.90
2023-03-16T05:01:02.705Z,99.90
2023-03-16T05:03:32.713Z,99.90
2023-03-16T05:06:00.053Z,99.90
2023-03-16T05:08:29.056Z,99.90
2023-03-16T05:10:58.378Z,99.90
2023-03-16T05:13:27.054Z,99.90
2023-03-16T05:15:57.790Z,99.90
2023-03-16T05:18:30.512Z,99.90
2023-03-16T05:20:57.885Z,99.90
2023-03-16T05:23:31.775Z,99.90
2023-03-16T05:26:03.261Z,99.90
2023-03-16T05:28:33.263Z,99.90
2023-03-16T05:31:04.469Z,99.90
2023-03-16T05:33:38.843Z,99.90
2023-03-16T05:36:09.999Z,99.90
2023-03-16T05:38:39.547Z,99.90
2023-03-16T05:41:10.454Z,99.90
2023-03-16T05:43:48.879Z,99.90
2023-03-16T05:46:19.623Z,99.90
2023-03-16T05:48:49.188Z,99.90
2023-03-16T05:51:18.741Z,99.90
2023-03-16T05:53:46.782Z,99.90
2023-03-16T05:56:25.153Z,99.90
2023-03-16T05:58:54.375Z,99.90
2023-03-16T06:01:23.373Z,99.90
2023-03-16T06:03:52.175Z,99.90
2023-03-16T06:06:24.354Z,99.90
2023-03-16T06:08:58.824Z,99.90
2023-03-16T06:11:27.491Z,99.90
2023-03-16T06:13:57.930Z,99.90
2023-03-16T06:16:26.124Z,99.90
2023-03-16T06:18:53.650Z,99.90
2023-03-16T06:21:20.911Z,99.90
2023-03-16T06:23:51.105Z,99.90
2023-03-16T06:26:20.322Z,99.90
2023-03-16T06:28:49.364Z,99.90
2023-03-16T06:31:16.784Z,99.90
2023-03-16T06:33:46.365Z,99.90
2023-03-16T06:36:13.787Z,99.90
2023-03-16T06:38:46.225Z,99.90
2023-03-16T06:41:23.821Z,99.90
2023-03-16T06:43:51.787Z,94.60
2023-03-16T06:46:19.023Z,89.40
2023-03-16T06:48:47.568Z,80.70
2023-03-16T06:51:16.863Z,72.80
2023-03-16T06:53:45.859Z,66.90
2023-03-16T06:56:13.748Z,63.30
2023-03-16T06:58:43.749Z,59.00
2023-03-16T07:01:12.623Z,56.40
2023-03-16T07:03:39.980Z,51.80
2023-03-16T07:06:16.708Z,51.00
2023-03-16T07:08:44.011Z,52.50
2023-03-16T07:11:12.105Z,51.10
2023-03-16T07:13:39.259Z,50.70
2023-03-16T07:16:06.958Z,50.70
2023-03-16T07:18:34.325Z,50.80
2023-03-16T07:21:02.176Z,51.00
2023-03-16T07:23:29.741Z,50.70
2023-03-16T07:26:03.771Z,48.50
2023-03-16T07:28:33.415Z,47.40
2023-03-16T07:31:04.319Z,47.20
2023-03-16T07:33:37.987Z,46.80
2023-03-16T07:36:09.379Z,46.50
2023-03-16T07:38:41.710Z,44.90
2023-03-16T07:41:09.490Z,45.40
2023-03-16T07:43:39.167Z,45.30
2023-03-16T07:46:13.865Z,45.00
2023-03-16T07:48:42.861Z,45.30
2023-03-16T07:51:13.112Z,44.90
2023-03-16T07:53:40.872Z,43.90
2023-03-16T07:56:19.989Z,44.20
2023-03-16T07:58:51.678Z,43.40
2023-03-16T08:01:18.832Z,42.40
2023-03-16T08:03:45.991Z,41.50
2023-03-16T08:06:13.161Z,39.00
2023-03-16T08:08:40.469Z,38.10
2023-03-16T08:11:11.388Z,38.10
2023-03-16T08:13:47.532Z,39.10
2023-03-16T08:16:15.380Z,38.00
2023-03-16T08:18:45.084Z,37.00
2023-03-16T08:21:12.561Z,37.10
2023-03-16T08:23:40.564Z,36.00
2023-03-16T08:26:09.133Z,36.00
2023-03-16T08:28:38.382Z,35.60
2023-03-16T08:31:09.782Z,36.50
2023-03-16T08:33:44.093Z,35.70
2023-03-16T08:36:14.414Z,35.70
2023-03-16T08:38:50.941Z,36.10
2023-03-16T08:41:30.860Z,35.30
2023-03-16T08:44:02.005Z,35.20
2023-03-16T08:46:29.748Z,35.60
2023-03-16T08:48:59.576Z,36.80
2023-03-16T08:51:27.536Z,37.80
2023-03-16T08:53:55.286Z,39.80
2023-03-16T08:56:24.701Z,40.50
2023-03-16T08:58:52.483Z,42.00
2023-03-16T09:01:20.471Z,43.70
2023-03-16T09:03:47.778Z,44.50
2023-03-16T09:06:17.298Z,45.20
2023-03-16T09:08:46.116Z,45.80
2023-03-16T09:11:15.572Z,43.60
2023-03-16T09:13:43.551Z,44.70
2023-03-16T09:16:12.369Z,43.30
2023-03-16T09:18:40.845Z,46.70
2023-03-16T09:21:13.275Z,45.60
2023-03-16T09:23:42.895Z,44.20
2023-03-16T09:26:12.608Z,44.30
2023-03-16T09:28:42.377Z,44.90
2023-03-16T09:31:18.641Z,47.70
2023-03-16T09:33:46.464Z,46.20
2023-03-16T09:36:14.397Z,47.10
2023-03-16T09:38:42.605Z,45.90
2023-03-16T09:41:31.161Z,43.90
2023-03-16T09:44:18.281Z,45.70
2023-03-16T09:46:48.802Z,47.20
2023-03-16T09:49:21.152Z,45.70
2023-03-16T09:51:52.285Z,46.70
2023-03-16T09:54:39.485Z,47.10
2023-03-16T09:57:18.635Z,45.60
2023-03-16T09:59:46.090Z,46.30
2023-03-16T10:02:43.693Z,46.10
2023-03-16T10:05:14.162Z,46.80
2023-03-16T10:08:06.764Z,46.60
2023-03-16T10:10:41.192Z,47.00
2023-03-16T10:13:28.145Z,46.60
2023-03-16T10:15:57.864Z,45.50
2023-03-16T10:18:32.514Z,45.00
2023-03-16T10:21:00.139Z,47.10
2023-03-16T10:23:27.450Z,44.30
2023-03-16T10:25:56.911Z,45.20
2023-03-16T10:28:27.129Z,45.30
2023-03-16T10:30:58.670Z,45.80
2023-03-16T10:33:29.889Z,44.60
2023-03-16T10:36:17.551Z,46.10
2023-03-16T10:38:48.382Z,43.80
2023-03-16T10:41:19.196Z,44.70
2023-03-16T10:43:52.392Z,44.90
2023-03-16T10:46:20.226Z,44.20
2023-03-16T10:49:00.497Z,44.90
2023-03-16T10:51:31.473Z,44.40
2023-03-16T10:54:25.112Z,43.50
2023-03-16T10:56:52.245Z,45.10
2023-03-16T10:59:37.157Z,44.40
2023-03-16T11:02:15.497Z,43.80
2023-03-16T11:04:43.036Z,43.10
2023-03-16T11:07:17.866Z,45.50
2023-03-16T11:09:47.359Z,46.10
2023-03-16T11:12:21.724Z,45.30
2023-03-16T11:14:49.257Z,43.20
2023-03-16T11:17:23.891Z,44.30
2023-03-16T11:19:56.904Z,43.40
2023-03-16T11:22:25.641Z,42.80
2023-03-16T11:25:15.878Z,43.80
2023-03-16T11:27:43.642Z,44.40
2023-03-16T11:30:18.072Z,43.10
2023-03-16T11:32:51.498Z,43.00
2023-03-16T11:35:22.623Z,43.20
2023-03-16T11:37:50.771Z,41.50
2023-03-16T11:40:18.330Z,43.20
2023-03-16T11:43:01.128Z,41.60
2023-03-16T11:45:43.424Z,43.00
2023-03-16T11:48:24.886Z,41.40
2023-03-16T11:51:04.567Z,42.80
2023-03-16T11:53:51.861Z,42.30
2023-03-16T11:56:45.464Z,40.90
2023-03-16T11:59:28.609Z,42.00
2023-03-16T12:02:16.233Z,40.90
2023-03-16T12:04:56.867Z,43.90
2023-03-16T12:07:44.952Z,44.60
2023-03-16T12:10:42.161Z,42.30
2023-03-16T12:13:30.968Z,41.70
2023-03-16T12:16:05.816Z,42.90
2023-03-16T12:18:48.012Z,40.60
2023-03-16T12:21:21.131Z,42.20
2023-03-16T12:24:00.729Z,42.40
2023-03-16T12:26:32.669Z,42.50
2023-03-16T12:29:04.358Z,42.70
2023-03-16T12:31:37.813Z,43.20
2023-03-16T12:34:27.693Z,40.10
2023-03-16T12:37:14.390Z,42.20
2023-03-16T12:39:48.968Z,40.10
2023-03-16T12:42:27.813Z,41.50
2023-03-16T12:45:01.067Z,42.00
2023-03-16T12:48:04.287Z,43.60
2023-03-16T12:50:33.217Z,39.60
2023-03-16T12:53:00.806Z,40.40
2023-03-16T12:55:36.424Z,42.30
2023-03-16T12:58:08.810Z,41.00
2023-03-16T13:00:40.826Z,41.40
2023-03-16T13:03:15.648Z,42.00
2023-03-16T13:05:49.846Z,41.40
2023-03-16T13:08:19.182Z,43.60
2023-03-16T13:11:07.382Z,43.50
2023-03-16T13:13:34.713Z,42.60
2023-03-16T13:16:10.307Z,41.70
2023-03-16T13:18:45.315Z,39.90
2023-03-16T13:21:18.388Z,40.60
2023-03-16T13:23:55.506Z,41.60
2023-03-16T13:26:45.638Z,40.00
2023-03-16T13:29:32.085Z,39.70
2023-03-16T13:32:19.734Z,41.30
2023-03-16T13:34:51.254Z,39.40
2023-03-16T13:37:20.861Z,40.30
2023-03-16T13:40:05.331Z,40.90
2023-03-16T13:42:34.011Z,39.30
2023-03-16T13:45:13.121Z,40.40
2023-03-16T13:47:43.343Z,41.00
2023-03-16T13:50:14.039Z,41.80
2023-03-16T13:52:44.267Z,42.20
2023-03-16T13:55:17.875Z,38.40
2023-03-16T13:57:46.073Z,39.80
2023-03-16T14:00:13.663Z,40.50
2023-03-16T14:02:43.848Z,41.60
2023-03-16T14:05:17.312Z,41.30
2023-03-16T14:07:48.707Z,39.00
2023-03-16T14:10:17.212Z,38.70
2023-03-16T14:13:09.065Z,40.10
2023-03-16T14:15:38.609Z,40.50
2023-03-16T14:18:19.153Z,40.50
2023-03-16T14:20:47.125Z,37.50
2023-03-16T14:23:19.434Z,39.40
2023-03-16T14:25:49.199Z,40.30
2023-03-16T14:28:17.964Z,38.90
2023-03-16T14:31:02.118Z,39.50
2023-03-16T14:33:33.757Z,41.20
2023-03-16T14:36:11.025Z,39.50
2023-03-16T14:38:40.529Z,40.70
2023-03-16T14:41:09.703Z,39.80
2023-03-16T14:43:45.158Z,37.40
2023-03-16T14:46:16.351Z,37.20
2023-03-16T14:48:45.762Z,38.30
2023-03-16T14:51:14.614Z,38.70
2023-03-16T14:53:41.791Z,39.20
2023-03-16T14:56:13.797Z,39.70
2023-03-16T14:58:42.008Z,40.30
2023-03-16T15:01:17.016Z,40.30
2023-03-16T15:03:45.519Z,38.80
2023-03-16T15:06:12.820Z,38.30
2023-03-16T15:08:45.305Z,37.40
2023-03-16T15:11:13.246Z,38.20
2023-03-16T15:13:41.419Z,37.80
2023-03-16T15:16:12.845Z,40.20
2023-03-16T15:18:40.578Z,39.70
2023-03-16T15:21:17.559Z,39.20
2023-03-16T15:23:45.254Z,38.90
2023-03-16T15:26:14.852Z,36.60
2023-03-16T15:28:42.306Z,37.30
2023-03-16T15:31:13.403Z,37.20
2023-03-16T15:33:41.667Z,39.30
2023-03-16T15:36:19.791Z,38.00
2023-03-16T15:38:50.499Z,41.20
2023-03-16T15:41:18.299Z,41.70
2023-03-16T15:43:46.085Z,40.50
2023-03-16T15:46:14.906Z,38.60
2023-03-16T15:48:42.478Z,40.30
2023-03-16T15:51:18.450Z,40.10
2023-03-16T15:54:04.945Z,38.60
2023-03-16T15:56:47.169Z,39.10
2023-03-16T15:59:18.493Z,39.30
2023-03-16T16:01:48.323Z,39.70
2023-03-16T16:04:19.866Z,40.40
2023-03-16T16:06:49.002Z,42.10
2023-03-16T16:09:16.604Z,42.10
2023-03-16T16:11:44.267Z,42.10
2023-03-16T16:14:25.038Z,42.80
2023-03-16T16:16:54.213Z,42.50
2023-03-16T16:19:21.838Z,42.90
2023-03-16T16:21:49.206Z,42.10
2023-03-16T16:24:18.639Z,42.60
2023-03-16T16:26:54.868Z,44.20
2023-03-16T16:29:25.746Z,43.10
2023-03-16T16:31:53.955Z,44.40
2023-03-16T16:34:24.907Z,44.50
2023-03-16T16:36:53.347Z,46.40
2023-03-16T16:39:21.088Z,45.20
2023-03-16T16:41:51.974Z,44.90
2023-03-16T16:44:23.733Z,45.70
2023-03-16T16:46:52.300Z,44.30
2023-03-16T16:49:24.345Z,44.20
2023-03-16T16:51:52.766Z,46.10
2023-03-16T16:54:22.955Z,46.00
2023-03-16T16:56:52.408Z,46.10
2023-03-16T16:59:26.290Z,45.00
2023-03-16T17:01:55.118Z,46.50
2023-03-16T17:04:25.533Z,51.50
2023-03-16T17:06:55.782Z,48.90
2023-03-16T17:09:24.352Z,50.20
2023-03-16T17:11:51.949Z,45.90
2023-03-16T17:14:21.441Z,47.20
2023-03-16T17:16:50.669Z,45.60
2023-03-16T17:19:22.514Z,46.90
2023-03-16T17:21:51.202Z,48.70
2023-03-16T17:24:18.647Z,47.40
2023-03-16T17:26:50.400Z,48.90
2023-03-16T17:29:22.603Z,49.80
2023-03-16T17:31:51.400Z,51.70
2023-03-16T17:34:20.365Z,50.60
2023-03-16T17:36:48.416Z,51.70
2023-03-16T17:39:22.830Z,51.90
2023-03-16T17:41:58.255Z,52.10
2023-03-16T17:44:28.672Z,52.10
2023-03-16T17:46:55.833Z,52.60
2023-03-16T17:49:28.319Z,53.50
2023-03-16T17:51:55.828Z,52.40
2023-03-16T17:54:23.268Z,53.80
2023-03-16T17:56:52.281Z,53.90
2023-03-16T17:59:21.845Z,53.40
2023-03-16T18:01:49.700Z,53.50
2023-03-16T18:04:21.507Z,54.90
2023-03-16T18:06:52.376Z,55.60
2023-03-16T18:09:20.787Z,54.10
2023-03-16T18:11:51.109Z,55.70
2023-03-16T18:14:37.028Z,57.10
2023-03-16T18:17:16.022Z,57.60
2023-03-16T18:19:45.627Z,58.60
2023-03-16T18:22:22.293Z,63.00
2023-03-16T18:24:50.404Z,62.40
2023-03-16T18:27:18.157Z,60.60
2023-03-16T18:29:47.143Z,64.00
2023-03-16T18:32:22.010Z,63.20
2023-03-16T18:34:51.964Z,61.30
2023-03-16T18:37:24.143Z,62.60
2023-03-16T18:39:52.928Z,64.20
2023-03-16T18:42:21.977Z,62.50
2023-03-16T18:44:49.533Z,63.60
2023-03-16T18:47:19.993Z,62.30
2023-03-16T18:49:50.214Z,62.30
2023-03-16T18:52:24.634Z,61.80
2023-03-16T18:54:53.181Z,62.50
2023-03-16T18:57:22.994Z,62.60
2023-03-16T18:59:51.142Z,62.00
2023-03-16T19:02:37.463Z,59.30
2023-03-16T19:05:08.448Z,61.20
2023-03-16T19:07:40.303Z,61.60
2023-03-16T19:10:18.618Z,62.50
2023-03-16T19:12:45.829Z,63.10
2023-03-16T19:15:18.961Z,62.70
2023-03-16T19:17:47.860Z,64.30
2023-03-16T19:20:17.254Z,63.70
2023-03-16T19:22:46.593Z,63.70
2023-03-16T19:25:20.213Z,65.90
2023-03-16T19:27:48.365Z,67.50
2023-03-16T19:30:23.601Z,68.30
2023-03-16T19:32:52.363Z,68.80
2023-03-16T19:35:20.860Z,67.70
2023-03-16T19:37:48.570Z,67.00
2023-03-16T19:40:19.067Z,67.70
2023-03-16T19:42:47.658Z,67.90
2023-03-16T19:45:20.818Z,68.30
2023-03-16T19:47:48.340Z,69.30
2023-03-16T19:50:19.393Z,69.30
2023-03-16T19:52:48.070Z,68.50
2023-03-16T19:55:27.650Z,68.50
2023-03-16T19:58:00.764Z,68.30
2023-03-16T20:00:30.107Z,70.70
2023-03-16T20:02:59.161Z,70.70
2023-03-16T20:05:30.664Z,72.50
2023-03-16T20:08:01.346Z,73.70
2023-03-16T20:10:30.300Z,75.00
2023-03-16T20:12:59.571Z,77.40
2023-03-16T20:15:32.442Z,77.80
2023-03-16T20:18:00.254Z,78.20
2023-03-16T20:20:31.004Z,78.10
2023-03-16T20:22:59.800Z,77.70
2023-03-16T20:25:34.764Z,78.10
2023-03-16T20:28:04.151Z,77.50
2023-03-16T20:30:32.097Z,77.90
2023-03-16T20:32:59.317Z,77.90
2023-03-16T20:35:29.642Z,77.70
2023-03-16T20:37:57.127Z,77.20
2023-03-16T20:40:24.398Z,78.60
2023-03-16T20:42:52.781Z,77.70
2023-03-16T20:45:23.802Z,76.00
2023-03-16T20:47:52.340Z,76.60
2023-03-16T20:50:23.498Z,79.70
2023-03-16T20:52:51.981Z,80.40
2023-03-16T20:55:22.946Z,80.30
2023-03-16T20:57:52.088Z,80.00
2023-03-16T21:00:23.925Z,80.70
2023-03-16T21:02:51.236Z,82.50
2023-03-16T21:05:19.347Z,83.30
2023-03-16T21:07:46.978Z,85.20
2023-03-16T21:10:18.293Z,84.80
2023-03-16T21:12:48.639Z,84.70
2023-03-16T21:15:19.885Z,84.30
2023-03-16T21:17:51.920Z,83.70
2023-03-16T21:20:20.843Z,84.50
2023-03-16T21:22:48.201Z,84.90
2023-03-16T21:25:23.520Z,84.00
2023-03-16T21:27:52.652Z,83.70
2023-03-16T21:30:44.448Z,85.90
2023-03-16T21:33:33.547Z,87.70
2023-03-16T21:36:02.225Z,89.80
2023-03-16T21:38:31.151Z,90.30
2023-03-16T21:40:59.802Z,90.00
2023-03-16T21:43:28.180Z,90.60
2023-03-16T21:45:57.122Z,90.90
2023-03-16T21:48:32.975Z,91.00
2023-03-16T21:51:00.660Z,90.80
2023-03-16T21:53:31.048Z,90.70
2023-03-16T21:55:58.956Z,91.40
2023-03-16T21:58:27.908Z,92.10
2023-03-16T22:00:56.041Z,92.70
2023-03-16T22:03:27.378Z,93.10
2023-03-16T22:05:57.437Z,92.40
2023-03-16T22:08:29.254Z,91.70
2023-03-16T22:10:58.015Z,91.60
2023-03-16T22:13:27.160Z,91.20
2023-03-16T22:15:58.487Z,91.40
2023-03-16T22:18:28.533Z,91.10
2023-03-16T22:20:57.530Z,91.20
2023-03-16T22:23:41.383Z,91.10
2023-03-16T22:26:15.820Z,90.60
2023-03-16T22:28:43.395Z,91.70
2023-03-16T22:31:16.630Z,92.10
2023-03-16T22:33:45.919Z,92.80
2023-03-16T22:36:17.834Z,93.80
2023-03-16T22:38:46.530Z,94.00
2023-03-16T22:41:17.805Z,93.90
2023-03-16T22:43:45.917Z,93.80
2023-03-16T22:46:17.980Z,94.80
2023-03-16T22:48:45.836Z,94.30
2023-03-16T22:51:22.908Z,93.50
2023-03-16T22:53:52.501Z,93.40
2023-03-16T22:56:20.393Z,94.10
2023-03-16T22:58:52.653Z,94.40
2023-03-16T23:01:23.516Z,94.80
2023-03-16T23:03:53.077Z,94.30
2023-03-16T23:06:23.646Z,94.80
2023-03-16T23:08:51.799Z,94.30
2023-03-16T23:11:24.035Z,94.10
2023-03-16T23:13:53.638Z,95.40
2023-03-16T23:16:23.942Z,95.50
2023-03-16T23:18:52.140Z,96.60
2023-03-16T23:21:22.101Z,96.30
2023-03-16T23:24:02.552Z,96.70
2023-03-16T23:26:31.421Z,97.00
2023-03-16T23:28:59.301Z,97.40
2023-03-16T23:31:27.790Z,97.50
2023-03-16T23:33:55.786Z,96.90
2023-03-16T23:36:25.875Z,97.80
2023-03-16T23:38:53.765Z,96.30
2023-03-16T23:41:24.677Z,95.70
2023-03-16T23:43:53.203Z,96.70
2023-03-16T23:46:22.678Z,96.20
2023-03-16T23:48:51.472Z,96.30
2023-03-16T23:51:28.960Z,97.60
2023-03-16T23:53:57.655Z,97.80
2023-03-16T23:56:26.623Z,97.60
2023-03-16T23:58:54.572Z,97.00
